KJOT/JOT METAR and TAF weather

Enter ICAO airport designator
Station Type Date Time Source
KJOT METAR 2023/02/05 14:15 UTC NOAA

KJOT 051415Z AUTO 23005KT 10SM CLR 03/M01 A2988 RMK AO2 T00301015


Station Type Date Time Source
KJOT Decoded METAR 2023/02/05 14:15 UTC NOAA

Joliet, Joliet Regional Airport, IL, United States (KJOT) 41-31-05N 088-10-31W
Feb 05, 2023 - 09:15 AM EST / 2023.02.05 1415 UTC
Wind: from the SW (230 degrees) at 6 MPH (5 KT):0
Visibility: 10 mile(s):0
Sky conditions: clear
Temperature: 37.4 F (3.0 C)
Dew Point: 29.3 F (-1.5 C)
Relative Humidity: 72%
Pressure (altimeter): 29.88 in. Hg (1011 hPa)
ob: KJOT 051415Z AUTO 23005KT 10SM CLR 03/M01 A2988 RMK AO2 T00301015
cycle: 14

Station Type Date Time Source
KJOT TAF UTC NOAA

Error!

Example: see airport list